Etusivu
METAR-TAF:

METAR-TAF

Lentoasemat :

Smithers, Brittiläinen Kolumbia, Kanada

Leveyspiiri: 54-49N, Pituuspiiri: 127-11W, korkeus merenpinnasta: 523 m

Tämänhetkinen sää

Tämä raportti tehtiin 1 tunti ja 7 minuuttia sitten, kello 10.00 UTC
Tuuli 2 kn idästä
Lämpötila -23°C
Kosteus 84%
Ilmanpaine 1024 hPa
Näkyvyys: 14.5 km
selkeää

METAR: CYYD 201000Z AUTO 10002KT 9SM CLR M23/M25 A3023 RMK SLP287

Aika: 03:07 (11:07 UTC)

Sääennuste

Tämä raportti tehtiin 10 tuntia ja 29 minuuttia sitten, kello 00.38 UTC
Ennuste voimassa 20. päivästä klo 01 UTC - 20. päivään klo 06 UTC
Tuuli 3 kn eri suunnista
Näkyvyys: 10 km
Muutamia pilviä 23000 ft:n korkeudessa

TAF: CYYD 200038Z 2001/2006 VRB03KT P6SM FEW230 RMK NXT FCST WILL BE ISSUED AT 201345Z

Säähavainnot ja -ennusteet yli 4000 lentoasemalta (METAR- ja TAF-raportit).

Käytössä olevat sääasemat on merkitty karttaan keltaisilla ja punaisilla pisteillä.

Aseta hiiri pisteen päälle nähdäksesi sääaseman nimen.

Klikkaa sitten nähdäksesi säähavainnot ja -ennusteet.

Kartan vaihtaminen: klikkaa mustalla rastilla varustettuja vihreitä pisteitä, niin voit zoomata sisään; viivalla varustettua vihreää pistettä, niin voit zoomata ulos tai vihreitä nuolia, niin pääset viereisille kartoille.


METAR-TAF: